sensor_id;sensor_type;location;lat;lon;timestamp;P1;durP1;ratioP1;P2;durP2;ratioP2
67037;SDS011;53940;53.204;6.590;2023-12-20T00:01:40;0.28;;;0.20;;
67037;SDS011;53940;53.204;6.590;2023-12-20T00:04:40;0.60;;;0.30;;
67037;SDS011;53940;53.204;6.590;2023-12-20T00:07:40;0.38;;;0.10;;
67037;SDS011;53940;53.204;6.590;2023-12-20T00:10:41;0.45;;;0.20;;
67037;SDS011;53940;53.204;6.590;2023-12-20T00:13:41;0.52;;;0.20;;
67037;SDS011;53940;53.204;6.590;2023-12-20T00:16:41;1.05;;;0.30;;
67037;SDS011;53940;53.204;6.590;2023-12-20T00:19:42;0.80;;;0.30;;
67037;SDS011;53940;53.204;6.590;2023-12-20T00:22:42;0.45;;;0.20;;
67037;SDS011;53940;53.204;6.590;2023-12-20T00:25:42;0.40;;;0.20;;
67037;SDS011;53940;53.204;6.590;2023-12-20T00:28:43;0.82;;;0.30;;
67037;SDS011;53940;53.204;6.590;2023-12-20T00:31:43;0.95;;;0.30;;
67037;SDS011;53940;53.204;6.590;2023-12-20T00:34:43;0.45;;;0.20;;
67037;SDS011;53940;53.204;6.590;2023-12-20T00:37:44;0.40;;;0.20;;
67037;SDS011;53940;53.204;6.590;2023-12-20T00:40:45;0.20;;;0.20;;
67037;SDS011;53940;53.204;6.590;2023-12-20T00:43:45;0.40;;;0.20;;
67037;SDS011;53940;53.204;6.590;2023-12-20T00:46:45;0.20;;;0.20;;
67037;SDS011;53940;53.204;6.590;2023-12-20T00:49:46;0.50;;;0.20;;
67037;SDS011;53940;53.204;6.590;2023-12-20T00:52:46;0.38;;;0.20;;
67037;SDS011;53940;53.204;6.590;2023-12-20T00:55:46;0.40;;;0.22;;
67037;SDS011;53940;53.204;6.590;2023-12-20T00:58:47;0.52;;;0.30;;
67037;SDS011;53940;53.204;6.590;2023-12-20T01:01:47;0.40;;;0.20;;
67037;SDS011;53940;53.204;6.590;2023-12-20T01:04:47;0.28;;;0.20;;
67037;SDS011;53940;53.204;6.590;2023-12-20T01:07:48;0.57;;;0.20;;
67037;SDS011;53940;53.204;6.590;2023-12-20T01:10:49;0.20;;;0.20;;
67037;SDS011;53940;53.204;6.590;2023-12-20T01:13:49;0.25;;;0.20;;
67037;SDS011;53940;53.204;6.590;2023-12-20T01:16:50;0.20;;;0.20;;
67037;SDS011;53940;53.204;6.590;2023-12-20T01:19:50;0.80;;;0.25;;
67037;SDS011;53940;53.204;6.590;2023-12-20T01:22:50;0.60;;;0.30;;
67037;SDS011;53940;53.204;6.590;2023-12-20T01:25:51;0.43;;;0.20;;
67037;SDS011;53940;53.204;6.590;2023-12-20T01:28:51;0.73;;;0.32;;
67037;SDS011;53940;53.204;6.590;2023-12-20T01:31:51;0.55;;;0.20;;
67037;SDS011;53940;53.204;6.590;2023-12-20T01:34:52;0.40;;;0.25;;
67037;SDS011;53940;53.204;6.590;2023-12-20T01:37:52;0.57;;;0.30;;
67037;SDS011;53940;53.204;6.590;2023-12-20T01:40:56;0.65;;;0.30;;
67037;SDS011;53940;53.204;6.590;2023-12-20T01:43:56;0.77;;;0.30;;
67037;SDS011;53940;53.204;6.590;2023-12-20T01:46:57;0.43;;;0.20;;
67037;SDS011;53940;53.204;6.590;2023-12-20T01:49:57;0.30;;;0.20;;
67037;SDS011;53940;53.204;6.590;2023-12-20T01:52:58;0.63;;;0.30;;
67037;SDS011;53940;53.204;6.590;2023-12-20T01:56:01;0.70;;;0.20;;
67037;SDS011;53940;53.204;6.590;2023-12-20T01:59:01;0.68;;;0.38;;
67037;SDS011;53940;53.204;6.590;2023-12-20T02:02:03;0.75;;;0.30;;
67037;SDS011;53940;53.204;6.590;2023-12-20T02:05:03;0.45;;;0.25;;
67037;SDS011;53940;53.204;6.590;2023-12-20T02:08:05;0.50;;;0.20;;
67037;SDS011;53940;53.204;6.590;2023-12-20T02:11:06;0.68;;;0.30;;
67037;SDS011;53940;53.204;6.590;2023-12-20T02:14:06;0.75;;;0.25;;
67037;SDS011;53940;53.204;6.590;2023-12-20T02:17:07;0.77;;;0.30;;
67037;SDS011;53940;53.204;6.590;2023-12-20T02:20:07;1.08;;;0.40;;
67037;SDS011;53940;53.204;6.590;2023-12-20T02:23:08;0.75;;;0.30;;
67037;SDS011;53940;53.204;6.590;2023-12-20T02:26:08;1.30;;;0.40;;
67037;SDS011;53940;53.204;6.590;2023-12-20T02:29:09;1.63;;;0.50;;
67037;SDS011;53940;53.204;6.590;2023-12-20T02:32:09;0.88;;;0.43;;
67037;SDS011;53940;53.204;6.590;2023-12-20T02:35:10;1.38;;;0.50;;
67037;SDS011;53940;53.204;6.590;2023-12-20T02:38:10;1.20;;;0.30;;
67037;SDS011;53940;53.204;6.590;2023-12-20T02:41:10;1.35;;;0.50;;
67037;SDS011;53940;53.204;6.590;2023-12-20T02:44:11;1.42;;;0.55;;
67037;SDS011;53940;53.204;6.590;2023-12-20T02:47:11;1.05;;;0.30;;
67037;SDS011;53940;53.204;6.590;2023-12-20T02:50:11;1.13;;;0.50;;
67037;SDS011;53940;53.204;6.590;2023-12-20T02:53:12;1.52;;;0.40;;
67037;SDS011;53940;53.204;6.590;2023-12-20T02:56:12;1.38;;;0.40;;
67037;SDS011;53940;53.204;6.590;2023-12-20T02:59:14;1.48;;;0.40;;
67037;SDS011;53940;53.204;6.590;2023-12-20T03:02:14;1.25;;;0.52;;
67037;SDS011;53940;53.204;6.590;2023-12-20T03:05:15;1.65;;;0.52;;
67037;SDS011;53940;53.204;6.590;2023-12-20T03:08:15;1.05;;;0.50;;
67037;SDS011;53940;53.204;6.590;2023-12-20T03:11:15;0.82;;;0.38;;
67037;SDS011;53940;53.204;6.590;2023-12-20T03:14:16;1.40;;;0.50;;
67037;SDS011;53940;53.204;6.590;2023-12-20T03:17:16;1.73;;;0.52;;
67037;SDS011;53940;53.204;6.590;2023-12-20T03:20:16;0.85;;;0.30;;
67037;SDS011;53940;53.204;6.590;2023-12-20T03:23:17;1.70;;;0.60;;
67037;SDS011;53940;53.204;6.590;2023-12-20T03:26:17;1.33;;;0.50;;
67037;SDS011;53940;53.204;6.590;2023-12-20T03:29:19;1.35;;;0.55;;
67037;SDS011;53940;53.204;6.590;2023-12-20T03:32:19;1.45;;;0.40;;
67037;SDS011;53940;53.204;6.590;2023-12-20T03:35:20;0.98;;;0.40;;
67037;SDS011;53940;53.204;6.590;2023-12-20T03:38:20;1.92;;;0.70;;
67037;SDS011;53940;53.204;6.590;2023-12-20T03:41:21;1.58;;;0.60;;
67037;SDS011;53940;53.204;6.590;2023-12-20T03:44:21;1.90;;;0.60;;
67037;SDS011;53940;53.204;6.590;2023-12-20T03:47:22;2.63;;;0.70;;
67037;SDS011;53940;53.204;6.590;2023-12-20T03:50:22;1.30;;;0.57;;
67037;SDS011;53940;53.204;6.590;2023-12-20T03:53:23;2.38;;;0.60;;
67037;SDS011;53940;53.204;6.590;2023-12-20T03:56:23;1.17;;;0.50;;
67037;SDS011;53940;53.204;6.590;2023-12-20T03:59:23;1.00;;;0.45;;
67037;SDS011;53940;53.204;6.590;2023-12-20T04:02:24;1.95;;;0.68;;
67037;SDS011;53940;53.204;6.590;2023-12-20T04:05:24;1.50;;;0.60;;
67037;SDS011;53940;53.204;6.590;2023-12-20T04:08:24;1.38;;;0.60;;
67037;SDS011;53940;53.204;6.590;2023-12-20T04:11:25;1.80;;;0.65;;
67037;SDS011;53940;53.204;6.590;2023-12-20T04:14:25;0.90;;;0.40;;
67037;SDS011;53940;53.204;6.590;2023-12-20T04:17:25;2.30;;;0.90;;
67037;SDS011;53940;53.204;6.590;2023-12-20T04:20:26;1.25;;;0.60;;
67037;SDS011;53940;53.204;6.590;2023-12-20T04:23:26;1.30;;;0.55;;
67037;SDS011;53940;53.204;6.590;2023-12-20T04:26:26;1.65;;;0.60;;
67037;SDS011;53940;53.204;6.590;2023-12-20T04:29:27;1.60;;;0.50;;
67037;SDS011;53940;53.204;6.590;2023-12-20T04:32:27;2.08;;;0.70;;
67037;SDS011;53940;53.204;6.590;2023-12-20T04:35:27;2.05;;;0.60;;
67037;SDS011;53940;53.204;6.590;2023-12-20T04:38:28;1.55;;;0.52;;
67037;SDS011;53940;53.204;6.590;2023-12-20T04:41:28;2.10;;;0.60;;
67037;SDS011;53940;53.204;6.590;2023-12-20T04:44:28;1.10;;;0.60;;
67037;SDS011;53940;53.204;6.590;2023-12-20T04:47:29;1.52;;;0.60;;
67037;SDS011;53940;53.204;6.590;2023-12-20T04:50:29;1.73;;;0.68;;
67037;SDS011;53940;53.204;6.590;2023-12-20T04:53:29;2.15;;;0.70;;
67037;SDS011;53940;53.204;6.590;2023-12-20T04:56:30;1.95;;;1.02;;
67037;SDS011;53940;53.204;6.590;2023-12-20T04:59:30;1.77;;;0.70;;
67037;SDS011;53940;53.204;6.590;2023-12-20T05:02:31;1.85;;;0.60;;
67037;SDS011;53940;53.204;6.590;2023-12-20T05:05:31;2.05;;;0.70;;
67037;SDS011;53940;53.204;6.590;2023-12-20T05:08:32;1.40;;;0.70;;
67037;SDS011;53940;53.204;6.590;2023-12-20T05:11:32;1.80;;;0.75;;
67037;SDS011;53940;53.204;6.590;2023-12-20T05:14:32;2.40;;;0.75;;
67037;SDS011;53940;53.204;6.590;2023-12-20T05:17:33;1.90;;;0.70;;
67037;SDS011;53940;53.204;6.590;2023-12-20T05:20:33;2.05;;;0.70;;
67037;SDS011;53940;53.204;6.590;2023-12-20T05:23:33;1.85;;;0.65;;
67037;SDS011;53940;53.204;6.590;2023-12-20T05:26:34;1.92;;;0.80;;
67037;SDS011;53940;53.204;6.590;2023-12-20T05:29:34;1.65;;;0.60;;
67037;SDS011;53940;53.204;6.590;2023-12-20T05:32:35;1.90;;;0.60;;
67037;SDS011;53940;53.204;6.590;2023-12-20T05:35:35;1.73;;;0.70;;
67037;SDS011;53940;53.204;6.590;2023-12-20T05:38:36;2.05;;;0.75;;
67037;SDS011;53940;53.204;6.590;2023-12-20T05:41:37;1.77;;;0.60;;
67037;SDS011;53940;53.204;6.590;2023-12-20T05:44:37;1.85;;;0.73;;
67037;SDS011;53940;53.204;6.590;2023-12-20T05:47:37;1.58;;;0.68;;
67037;SDS011;53940;53.204;6.590;2023-12-20T05:50:38;1.48;;;0.65;;
67037;SDS011;53940;53.204;6.590;2023-12-20T05:53:39;1.83;;;0.60;;
67037;SDS011;53940;53.204;6.590;2023-12-20T05:56:39;2.13;;;0.70;;
67037;SDS011;53940;53.204;6.590;2023-12-20T05:59:40;1.50;;;0.60;;
67037;SDS011;53940;53.204;6.590;2023-12-20T06:02:40;1.45;;;0.57;;
67037;SDS011;53940;53.204;6.590;2023-12-20T06:05:41;2.25;;;0.70;;
67037;SDS011;53940;53.204;6.590;2023-12-20T06:08:41;1.48;;;0.63;;
67037;SDS011;53940;53.204;6.590;2023-12-20T06:11:43;1.80;;;0.70;;
67037;SDS011;53940;53.204;6.590;2023-12-20T06:14:43;1.90;;;0.80;;
67037;SDS011;53940;53.204;6.590;2023-12-20T06:17:44;2.00;;;0.63;;
67037;SDS011;53940;53.204;6.590;2023-12-20T06:20:44;1.80;;;0.60;;
67037;SDS011;53940;53.204;6.590;2023-12-20T06:23:44;2.03;;;0.80;;
67037;SDS011;53940;53.204;6.590;2023-12-20T06:26:45;2.38;;;0.80;;
67037;SDS011;53940;53.204;6.590;2023-12-20T06:29:45;3.67;;;1.17;;
67037;SDS011;53940;53.204;6.590;2023-12-20T06:32:45;1.65;;;0.65;;
67037;SDS011;53940;53.204;6.590;2023-12-20T06:35:47;1.67;;;0.70;;
67037;SDS011;53940;53.204;6.590;2023-12-20T06:38:47;1.95;;;0.80;;
67037;SDS011;53940;53.204;6.590;2023-12-20T06:41:47;1.48;;;0.75;;
67037;SDS011;53940;53.204;6.590;2023-12-20T06:44:48;1.92;;;0.77;;
67037;SDS011;53940;53.204;6.590;2023-12-20T06:47:48;2.65;;;0.70;;
67037;SDS011;53940;53.204;6.590;2023-12-20T06:50:48;1.75;;;0.70;;
67037;SDS011;53940;53.204;6.590;2023-12-20T06:53:49;2.58;;;0.73;;
67037;SDS011;53940;53.204;6.590;2023-12-20T06:56:49;3.22;;;0.90;;
67037;SDS011;53940;53.204;6.590;2023-12-20T06:59:49;2.85;;;0.70;;
67037;SDS011;53940;53.204;6.590;2023-12-20T07:02:50;1.50;;;0.57;;
67037;SDS011;53940;53.204;6.590;2023-12-20T07:05:50;1.40;;;0.50;;
67037;SDS011;53940;53.204;6.590;2023-12-20T07:08:50;1.30;;;0.50;;
67037;SDS011;53940;53.204;6.590;2023-12-20T07:11:52;1.42;;;0.60;;
67037;SDS011;53940;53.204;6.590;2023-12-20T07:14:53;1.63;;;0.65;;
67037;SDS011;53940;53.204;6.590;2023-12-20T07:17:53;1.77;;;0.60;;
67037;SDS011;53940;53.204;6.590;2023-12-20T07:20:53;1.65;;;0.60;;
67037;SDS011;53940;53.204;6.590;2023-12-20T07:23:55;3.05;;;0.80;;
67037;SDS011;53940;53.204;6.590;2023-12-20T07:26:55;2.83;;;0.82;;
67037;SDS011;53940;53.204;6.590;2023-12-20T07:29:56;2.28;;;0.73;;
67037;SDS011;53940;53.204;6.590;2023-12-20T07:32:56;1.48;;;0.60;;
67037;SDS011;53940;53.204;6.590;2023-12-20T07:35:56;1.63;;;0.68;;
67037;SDS011;53940;53.204;6.590;2023-12-20T07:38:57;2.63;;;0.70;;
67037;SDS011;53940;53.204;6.590;2023-12-20T07:41:57;1.52;;;0.63;;
67037;SDS011;53940;53.204;6.590;2023-12-20T07:44:58;1.70;;;0.60;;
67037;SDS011;53940;53.204;6.590;2023-12-20T07:47:59;1.23;;;0.47;;
67037;SDS011;53940;53.204;6.590;2023-12-20T07:50:59;4.13;;;0.80;;
67037;SDS011;53940;53.204;6.590;2023-12-20T07:53:59;1.77;;;0.70;;
67037;SDS011;53940;53.204;6.590;2023-12-20T07:57:00;2.95;;;0.60;;
67037;SDS011;53940;53.204;6.590;2023-12-20T08:00:00;2.10;;;0.85;;
67037;SDS011;53940;53.204;6.590;2023-12-20T08:03:00;1.60;;;0.50;;
67037;SDS011;53940;53.204;6.590;2023-12-20T08:06:03;2.67;;;0.95;;
67037;SDS011;53940;53.204;6.590;2023-12-20T08:09:04;1.67;;;0.60;;
67037;SDS011;53940;53.204;6.590;2023-12-20T08:12:04;2.65;;;0.75;;
67037;SDS011;53940;53.204;6.590;2023-12-20T08:15:05;2.60;;;0.75;;
67037;SDS011;53940;53.204;6.590;2023-12-20T08:18:06;1.20;;;0.60;;
67037;SDS011;53940;53.204;6.590;2023-12-20T08:21:06;2.55;;;0.80;;
67037;SDS011;53940;53.204;6.590;2023-12-20T08:24:09;3.03;;;0.80;;
67037;SDS011;53940;53.204;6.590;2023-12-20T08:27:10;1.25;;;0.50;;
67037;SDS011;53940;53.204;6.590;2023-12-20T08:30:10;3.13;;;0.88;;
67037;SDS011;53940;53.204;6.590;2023-12-20T08:33:11;3.50;;;0.70;;
67037;SDS011;53940;53.204;6.590;2023-12-20T08:36:13;1.95;;;0.73;;
67037;SDS011;53940;53.204;6.590;2023-12-20T08:39:13;2.35;;;0.63;;
67037;SDS011;53940;53.204;6.590;2023-12-20T08:42:14;1.13;;;0.60;;
67037;SDS011;53940;53.204;6.590;2023-12-20T08:45:14;2.03;;;0.50;;
67037;SDS011;53940;53.204;6.590;2023-12-20T08:48:14;4.18;;;0.80;;
67037;SDS011;53940;53.204;6.590;2023-12-20T08:51:15;3.50;;;0.73;;
67037;SDS011;53940;53.204;6.590;2023-12-20T08:54:15;2.42;;;1.02;;
67037;SDS011;53940;53.204;6.590;2023-12-20T08:57:17;1.40;;;0.60;;
67037;SDS011;53940;53.204;6.590;2023-12-20T09:00:24;1.73;;;0.80;;
67037;SDS011;53940;53.204;6.590;2023-12-20T09:03:27;2.20;;;0.70;;
67037;SDS011;53940;53.204;6.590;2023-12-20T09:06:27;1.55;;;0.60;;
67037;SDS011;53940;53.204;6.590;2023-12-20T09:09:28;1.80;;;0.60;;
67037;SDS011;53940;53.204;6.590;2023-12-20T09:12:28;1.38;;;0.63;;
67037;SDS011;53940;53.204;6.590;2023-12-20T09:15:28;1.73;;;0.68;;
67037;SDS011;53940;53.204;6.590;2023-12-20T09:18:30;1.00;;;0.50;;
67037;SDS011;53940;53.204;6.590;2023-12-20T09:21:30;1.40;;;0.57;;
67037;SDS011;53940;53.204;6.590;2023-12-20T09:24:31;1.42;;;0.60;;
67037;SDS011;53940;53.204;6.590;2023-12-20T09:27:31;2.25;;;0.57;;
67037;SDS011;53940;53.204;6.590;2023-12-20T09:30:31;1.38;;;0.60;;
67037;SDS011;53940;53.204;6.590;2023-12-20T09:33:32;2.33;;;0.60;;
67037;SDS011;53940;53.204;6.590;2023-12-20T09:36:33;1.27;;;0.43;;
67037;SDS011;53940;53.204;6.590;2023-12-20T09:39:36;1.55;;;0.55;;
67037;SDS011;53940;53.204;6.590;2023-12-20T09:46:03;1.25;;;0.65;;
67037;SDS011;53940;53.204;6.590;2023-12-20T09:49:06;2.40;;;0.60;;
67037;SDS011;53940;53.204;6.590;2023-12-20T09:52:06;1.83;;;0.57;;
67037;SDS011;53940;53.204;6.590;2023-12-20T09:55:09;1.17;;;0.60;;
67037;SDS011;53940;53.204;6.590;2023-12-20T09:58:10;2.45;;;0.70;;
67037;SDS011;53940;53.204;6.590;2023-12-20T10:01:10;1.00;;;0.50;;
67037;SDS011;53940;53.204;6.590;2023-12-20T10:04:12;0.90;;;0.40;;
67037;SDS011;53940;53.204;6.590;2023-12-20T10:07:13;1.38;;;0.40;;
67037;SDS011;53940;53.204;6.590;2023-12-20T10:10:13;1.33;;;0.57;;
67037;SDS011;53940;53.204;6.590;2023-12-20T10:13:14;1.25;;;0.50;;
67037;SDS011;53940;53.204;6.590;2023-12-20T10:16:15;2.28;;;0.88;;
67037;SDS011;53940;53.204;6.590;2023-12-20T10:19:16;1.58;;;0.55;;
67037;SDS011;53940;53.204;6.590;2023-12-20T10:22:18;1.35;;;0.50;;
67037;SDS011;53940;53.204;6.590;2023-12-20T10:25:18;1.55;;;0.73;;
67037;SDS011;53940;53.204;6.590;2023-12-20T10:28:18;1.35;;;0.60;;
67037;SDS011;53940;53.204;6.590;2023-12-20T10:31:30;1.13;;;0.40;;
67037;SDS011;53940;53.204;6.590;2023-12-20T10:34:32;1.33;;;0.50;;
67037;SDS011;53940;53.204;6.590;2023-12-20T10:37:36;1.48;;;0.50;;
67037;SDS011;53940;53.204;6.590;2023-12-20T10:40:37;1.42;;;0.60;;
67037;SDS011;53940;53.204;6.590;2023-12-20T10:43:38;1.67;;;0.70;;
67037;SDS011;53940;53.204;6.590;2023-12-20T10:46:39;1.50;;;0.68;;
67037;SDS011;53940;53.204;6.590;2023-12-20T10:49:40;1.45;;;0.52;;
67037;SDS011;53940;53.204;6.590;2023-12-20T10:52:42;1.20;;;0.45;;
67037;SDS011;53940;53.204;6.590;2023-12-20T10:55:44;1.73;;;0.60;;
67037;SDS011;53940;53.204;6.590;2023-12-20T10:58:46;1.90;;;0.57;;
67037;SDS011;53940;53.204;6.590;2023-12-20T11:01:47;1.00;;;0.50;;
67037;SDS011;53940;53.204;6.590;2023-12-20T11:08:01;1.67;;;0.47;;
67037;SDS011;53940;53.204;6.590;2023-12-20T11:11:13;1.52;;;0.60;;
67037;SDS011;53940;53.204;6.590;2023-12-20T11:14:28;1.05;;;0.50;;
67037;SDS011;53940;53.204;6.590;2023-12-20T11:17:34;1.13;;;0.52;;
67037;SDS011;53940;53.204;6.590;2023-12-20T11:20:39;0.90;;;0.32;;
67037;SDS011;53940;53.204;6.590;2023-12-20T11:23:41;0.98;;;0.47;;
67037;SDS011;53940;53.204;6.590;2023-12-20T11:26:46;0.90;;;0.40;;
67037;SDS011;53940;53.204;6.590;2023-12-20T11:29:57;2.40;;;0.60;;
67037;SDS011;53940;53.204;6.590;2023-12-20T11:32:58;1.10;;;0.50;;
67037;SDS011;53940;53.204;6.590;2023-12-20T11:35:59;1.23;;;0.50;;
67037;SDS011;53940;53.204;6.590;2023-12-20T11:39:00;0.90;;;0.45;;
67037;SDS011;53940;53.204;6.590;2023-12-20T11:42:06;1.45;;;0.52;;
67037;SDS011;53940;53.204;6.590;2023-12-20T11:45:11;1.75;;;0.60;;
67037;SDS011;53940;53.204;6.590;2023-12-20T11:48:15;1.02;;;0.47;;
67037;SDS011;53940;53.204;6.590;2023-12-20T11:51:15;1.50;;;0.50;;
67037;SDS011;53940;53.204;6.590;2023-12-20T11:54:16;1.15;;;0.50;;
67037;SDS011;53940;53.204;6.590;2023-12-20T11:57:16;0.68;;;0.40;;
67037;SDS011;53940;53.204;6.590;2023-12-20T12:00:17;0.98;;;0.50;;
67037;SDS011;53940;53.204;6.590;2023-12-20T12:03:17;1.10;;;0.50;;
67037;SDS011;53940;53.204;6.590;2023-12-20T12:06:18;1.42;;;0.52;;
67037;SDS011;53940;53.204;6.590;2023-12-20T12:09:19;1.45;;;0.60;;
67037;SDS011;53940;53.204;6.590;2023-12-20T12:12:19;1.33;;;0.50;;
67037;SDS011;53940;53.204;6.590;2023-12-20T12:15:19;1.35;;;0.47;;
67037;SDS011;53940;53.204;6.590;2023-12-20T12:18:21;1.42;;;0.40;;
67037;SDS011;53940;53.204;6.590;2023-12-20T12:21:21;1.20;;;0.57;;
67037;SDS011;53940;53.204;6.590;2023-12-20T12:24:22;1.02;;;0.40;;
67037;SDS011;53940;53.204;6.590;2023-12-20T12:27:22;1.38;;;0.40;;
67037;SDS011;53940;53.204;6.590;2023-12-20T12:30:22;1.27;;;0.40;;
67037;SDS011;53940;53.204;6.590;2023-12-20T12:33:23;0.90;;;0.45;;
67037;SDS011;53940;53.204;6.590;2023-12-20T12:36:25;2.58;;;0.40;;
67037;SDS011;53940;53.204;6.590;2023-12-20T12:39:26;0.80;;;0.43;;
67037;SDS011;53940;53.204;6.590;2023-12-20T12:42:26;1.23;;;0.40;;
67037;SDS011;53940;53.204;6.590;2023-12-20T12:45:28;0.88;;;0.40;;
67037;SDS011;53940;53.204;6.590;2023-12-20T12:48:29;0.98;;;0.40;;
67037;SDS011;53940;53.204;6.590;2023-12-20T12:51:29;1.02;;;0.40;;
67037;SDS011;53940;53.204;6.590;2023-12-20T12:54:30;2.47;;;1.00;;
67037;SDS011;53940;53.204;6.590;2023-12-20T12:57:30;3.35;;;0.90;;
67037;SDS011;53940;53.204;6.590;2023-12-20T13:00:31;2.83;;;0.90;;
67037;SDS011;53940;53.204;6.590;2023-12-20T13:03:31;3.30;;;1.05;;
67037;SDS011;53940;53.204;6.590;2023-12-20T13:06:31;2.95;;;0.85;;
67037;SDS011;53940;53.204;6.590;2023-12-20T13:09:32;3.15;;;1.02;;
67037;SDS011;53940;53.204;6.590;2023-12-20T13:12:32;4.05;;;1.13;;
67037;SDS011;53940;53.204;6.590;2023-12-20T13:15:33;3.15;;;0.80;;
67037;SDS011;53940;53.204;6.590;2023-12-20T13:18:33;2.92;;;1.20;;
67037;SDS011;53940;53.204;6.590;2023-12-20T13:21:33;2.95;;;1.00;;
67037;SDS011;53940;53.204;6.590;2023-12-20T13:24:34;3.08;;;0.80;;
67037;SDS011;53940;53.204;6.590;2023-12-20T13:27:34;3.40;;;1.20;;
67037;SDS011;53940;53.204;6.590;2023-12-20T13:30:35;4.00;;;0.98;;
67037;SDS011;53940;53.204;6.590;2023-12-20T13:33:35;4.15;;;1.15;;
67037;SDS011;53940;53.204;6.590;2023-12-20T13:36:36;2.47;;;0.95;;
67037;SDS011;53940;53.204;6.590;2023-12-20T13:39:36;3.03;;;1.05;;
67037;SDS011;53940;53.204;6.590;2023-12-20T13:42:38;1.92;;;0.88;;
67037;SDS011;53940;53.204;6.590;2023-12-20T13:45:39;3.15;;;0.90;;
67037;SDS011;53940;53.204;6.590;2023-12-20T13:48:39;2.03;;;0.77;;
67037;SDS011;53940;53.204;6.590;2023-12-20T13:51:40;3.38;;;1.10;;
67037;SDS011;53940;53.204;6.590;2023-12-20T13:54:40;2.78;;;1.20;;
67037;SDS011;53940;53.204;6.590;2023-12-20T13:57:40;2.13;;;0.70;;
67037;SDS011;53940;53.204;6.590;2023-12-20T14:00:41;2.95;;;0.80;;
67037;SDS011;53940;53.204;6.590;2023-12-20T14:03:41;1.52;;;0.60;;
67037;SDS011;53940;53.204;6.590;2023-12-20T14:06:42;2.17;;;0.88;;
67037;SDS011;53940;53.204;6.590;2023-12-20T14:09:42;2.60;;;0.93;;
67037;SDS011;53940;53.204;6.590;2023-12-20T14:12:45;2.92;;;0.93;;
67037;SDS011;53940;53.204;6.590;2023-12-20T14:15:45;2.42;;;0.77;;
67037;SDS011;53940;53.204;6.590;2023-12-20T14:18:46;2.13;;;0.82;;
67037;SDS011;53940;53.204;6.590;2023-12-20T14:21:47;2.00;;;0.90;;
67037;SDS011;53940;53.204;6.590;2023-12-20T14:24:47;1.85;;;0.80;;
67037;SDS011;53940;53.204;6.590;2023-12-20T14:27:47;1.77;;;0.70;;
67037;SDS011;53940;53.204;6.590;2023-12-20T14:30:48;1.35;;;0.70;;
67037;SDS011;53940;53.204;6.590;2023-12-20T14:33:49;2.70;;;0.85;;
67037;SDS011;53940;53.204;6.590;2023-12-20T14:36:50;2.05;;;0.70;;
67037;SDS011;53940;53.204;6.590;2023-12-20T14:39:52;2.10;;;0.85;;
67037;SDS011;53940;53.204;6.590;2023-12-20T14:42:52;2.10;;;0.70;;
67037;SDS011;53940;53.204;6.590;2023-12-20T14:45:53;1.83;;;0.70;;
67037;SDS011;53940;53.204;6.590;2023-12-20T14:48:53;2.05;;;0.63;;
67037;SDS011;53940;53.204;6.590;2023-12-20T14:51:54;1.73;;;0.70;;
67037;SDS011;53940;53.204;6.590;2023-12-20T14:54:54;2.13;;;0.70;;
67037;SDS011;53940;53.204;6.590;2023-12-20T14:57:54;2.72;;;0.90;;
67037;SDS011;53940;53.204;6.590;2023-12-20T15:00:55;2.20;;;0.85;;
67037;SDS011;53940;53.204;6.590;2023-12-20T15:03:56;1.23;;;0.60;;
67037;SDS011;53940;53.204;6.590;2023-12-20T15:06:57;2.15;;;0.90;;
67037;SDS011;53940;53.204;6.590;2023-12-20T15:09:57;2.33;;;0.80;;
67037;SDS011;53940;53.204;6.590;2023-12-20T15:12:57;1.40;;;0.60;;
67037;SDS011;53940;53.204;6.590;2023-12-20T15:15:58;2.03;;;0.65;;
67037;SDS011;53940;53.204;6.590;2023-12-20T15:18:58;2.22;;;0.70;;
67037;SDS011;53940;53.204;6.590;2023-12-20T15:21:58;1.45;;;0.68;;
67037;SDS011;53940;53.204;6.590;2023-12-20T15:25:00;2.25;;;0.70;;
67037;SDS011;53940;53.204;6.590;2023-12-20T15:28:01;1.45;;;0.60;;
67037;SDS011;53940;53.204;6.590;2023-12-20T15:31:04;1.05;;;0.60;;
67037;SDS011;53940;53.204;6.590;2023-12-20T15:34:04;1.85;;;0.85;;
67037;SDS011;53940;53.204;6.590;2023-12-20T15:37:05;2.65;;;0.80;;
67037;SDS011;53940;53.204;6.590;2023-12-20T15:40:08;1.42;;;0.70;;
67037;SDS011;53940;53.204;6.590;2023-12-20T15:43:12;1.58;;;0.50;;
67037;SDS011;53940;53.204;6.590;2023-12-20T15:46:13;1.35;;;0.60;;
67037;SDS011;53940;53.204;6.590;2023-12-20T15:49:14;2.15;;;0.80;;
67037;SDS011;53940;53.204;6.590;2023-12-20T15:52:17;2.20;;;0.77;;
67037;SDS011;53940;53.204;6.590;2023-12-20T15:55:17;2.03;;;0.75;;
67037;SDS011;53940;53.204;6.590;2023-12-20T15:58:18;1.45;;;0.60;;
67037;SDS011;53940;53.204;6.590;2023-12-20T16:01:18;1.42;;;0.60;;
67037;SDS011;53940;53.204;6.590;2023-12-20T16:04:18;2.25;;;0.60;;
67037;SDS011;53940;53.204;6.590;2023-12-20T16:07:19;1.70;;;0.70;;
67037;SDS011;53940;53.204;6.590;2023-12-20T16:10:19;2.95;;;0.90;;
67037;SDS011;53940;53.204;6.590;2023-12-20T16:13:20;2.85;;;0.40;;
67037;SDS011;53940;53.204;6.590;2023-12-20T16:16:20;1.73;;;0.70;;
67037;SDS011;53940;53.204;6.590;2023-12-20T16:19:21;1.55;;;0.60;;
67037;SDS011;53940;53.204;6.590;2023-12-20T16:22:21;2.40;;;0.60;;
67037;SDS011;53940;53.204;6.590;2023-12-20T16:25:21;1.33;;;0.52;;
67037;SDS011;53940;53.204;6.590;2023-12-20T16:28:23;1.52;;;0.80;;
67037;SDS011;53940;53.204;6.590;2023-12-20T16:31:24;1.83;;;0.60;;
67037;SDS011;53940;53.204;6.590;2023-12-20T16:34:24;0.77;;;0.40;;
67037;SDS011;53940;53.204;6.590;2023-12-20T16:37:24;1.77;;;0.60;;
67037;SDS011;53940;53.204;6.590;2023-12-20T16:40:25;1.38;;;0.55;;
67037;SDS011;53940;53.204;6.590;2023-12-20T16:43:25;2.83;;;1.00;;
67037;SDS011;53940;53.204;6.590;2023-12-20T16:46:26;1.33;;;0.45;;
67037;SDS011;53940;53.204;6.590;2023-12-20T16:49:26;1.83;;;0.68;;
67037;SDS011;53940;53.204;6.590;2023-12-20T16:52:26;1.38;;;0.50;;
67037;SDS011;53940;53.204;6.590;2023-12-20T16:55:27;2.00;;;0.57;;
67037;SDS011;53940;53.204;6.590;2023-12-20T16:58:28;1.33;;;0.50;;
67037;SDS011;53940;53.204;6.590;2023-12-20T17:01:29;1.77;;;0.50;;
67037;SDS011;53940;53.204;6.590;2023-12-20T17:04:29;1.08;;;0.47;;
67037;SDS011;53940;53.204;6.590;2023-12-20T17:07:32;1.38;;;0.50;;
67037;SDS011;53940;53.204;6.590;2023-12-20T17:10:33;1.08;;;0.50;;
67037;SDS011;53940;53.204;6.590;2023-12-20T17:13:33;1.95;;;0.60;;
67037;SDS011;53940;53.204;6.590;2023-12-20T17:16:33;1.50;;;0.60;;
67037;SDS011;53940;53.204;6.590;2023-12-20T17:19:34;1.65;;;0.50;;
67037;SDS011;53940;53.204;6.590;2023-12-20T17:22:35;1.25;;;0.52;;
67037;SDS011;53940;53.204;6.590;2023-12-20T17:25:35;1.60;;;0.70;;
67037;SDS011;53940;53.204;6.590;2023-12-20T17:28:39;1.58;;;0.50;;
67037;SDS011;53940;53.204;6.590;2023-12-20T17:31:40;1.45;;;0.50;;
67037;SDS011;53940;53.204;6.590;2023-12-20T17:34:42;1.55;;;0.65;;
67037;SDS011;53940;53.204;6.590;2023-12-20T17:37:42;1.42;;;0.40;;
67037;SDS011;53940;53.204;6.590;2023-12-20T17:40:43;1.15;;;0.50;;
67037;SDS011;53940;53.204;6.590;2023-12-20T17:43:43;1.33;;;0.50;;
67037;SDS011;53940;53.204;6.590;2023-12-20T17:46:43;1.13;;;0.40;;
67037;SDS011;53940;53.204;6.590;2023-12-20T17:49:44;1.50;;;0.65;;
67037;SDS011;53940;53.204;6.590;2023-12-20T17:52:44;0.93;;;0.50;;
67037;SDS011;53940;53.204;6.590;2023-12-20T17:55:44;0.90;;;0.40;;
67037;SDS011;53940;53.204;6.590;2023-12-20T17:58:45;1.67;;;0.60;;
67037;SDS011;53940;53.204;6.590;2023-12-20T18:01:45;1.95;;;0.60;;
67037;SDS011;53940;53.204;6.590;2023-12-20T18:04:45;1.02;;;0.50;;
67037;SDS011;53940;53.204;6.590;2023-12-20T18:07:46;1.25;;;0.60;;
67037;SDS011;53940;53.204;6.590;2023-12-20T18:10:48;1.30;;;0.60;;
67037;SDS011;53940;53.204;6.590;2023-12-20T18:13:48;1.15;;;0.40;;
67037;SDS011;53940;53.204;6.590;2023-12-20T18:16:48;0.77;;;0.30;;